sensor_id;sensor_type;location;lat;lon;timestamp;pressure;altitude;pressure_sealevel;temperature;humidity
79028;BME280;68427;48.476;19.102;2023-08-01T00:00:14;97027.16;;;12.78;80.85
79028;BME280;68427;48.476;19.102;2023-08-01T00:02:40;97023.94;;;12.76;80.58
79028;BME280;68427;48.476;19.102;2023-08-01T00:05:08;97028.84;;;12.72;80.75
79028;BME280;68427;48.476;19.102;2023-08-01T00:07:34;97032.34;;;12.66;81.32
79028;BME280;68427;48.476;19.102;2023-08-01T00:09:59;97025.78;;;12.57;81.39
79028;BME280;68427;48.476;19.102;2023-08-01T00:12:27;97028.47;;;12.50;82.00
79028;BME280;68427;48.476;19.102;2023-08-01T00:14:53;97022.78;;;12.53;81.54
79028;BME280;68427;48.476;19.102;2023-08-01T00:17:18;97026.44;;;12.52;81.24
79028;BME280;68427;48.476;19.102;2023-08-01T00:19:44;97029.28;;;12.51;81.40
79028;BME280;68427;48.476;19.102;2023-08-01T00:22:10;97020.00;;;12.48;81.60
79028;BME280;68427;48.476;19.102;2023-08-01T00:24:37;97023.47;;;12.49;81.58
79028;BME280;68427;48.476;19.102;2023-08-01T00:27:03;97028.47;;;12.50;81.26
79028;BME280;68427;48.476;19.102;2023-08-01T00:29:31;97027.88;;;12.48;80.91
79028;BME280;68427;48.476;19.102;2023-08-01T00:31:56;97025.75;;;12.39;81.50
79028;BME280;68427;48.476;19.102;2023-08-01T00:34:22;97036.06;;;12.40;82.04
79028;BME280;68427;48.476;19.102;2023-08-01T00:36:48;97031.59;;;12.41;81.88
79028;BME280;68427;48.476;19.102;2023-08-01T00:39:14;97035.47;;;12.38;81.39
79028;BME280;68427;48.476;19.102;2023-08-01T00:41:40;97028.81;;;12.36;81.35
79028;BME280;68427;48.476;19.102;2023-08-01T00:47:16;97025.09;;;12.25;81.42
79028;BME280;68427;48.476;19.102;2023-08-01T00:49:42;97024.16;;;12.19;81.38
79028;BME280;68427;48.476;19.102;2023-08-01T00:52:08;97017.28;;;12.18;81.43
79028;BME280;68427;48.476;19.102;2023-08-01T00:54:35;97019.09;;;12.18;81.73
79028;BME280;68427;48.476;19.102;2023-08-01T00:57:02;97015.88;;;12.16;81.39
79028;BME280;68427;48.476;19.102;2023-08-01T00:59:28;97010.88;;;12.14;80.94
79028;BME280;68427;48.476;19.102;2023-08-01T01:01:54;97011.28;;;12.11;81.37
79028;BME280;68427;48.476;19.102;2023-08-01T01:04:22;97009.69;;;12.10;81.41
79028;BME280;68427;48.476;19.102;2023-08-01T01:06:52;97003.25;;;12.06;81.47
79028;BME280;68427;48.476;19.102;2023-08-01T01:09:19;96995.59;;;12.04;81.56
79028;BME280;68427;48.476;19.102;2023-08-01T01:11:46;96990.81;;;12.01;82.02
79028;BME280;68427;48.476;19.102;2023-08-01T01:14:12;96998.69;;;12.01;82.48
79028;BME280;68427;48.476;19.102;2023-08-01T01:16:38;96988.81;;;11.97;82.33
79028;BME280;68427;48.476;19.102;2023-08-01T01:19:08;96978.53;;;11.95;82.85
79028;BME280;68427;48.476;19.102;2023-08-01T01:21:37;96955.53;;;11.91;82.86
79028;BME280;68427;48.476;19.102;2023-08-01T01:24:05;96961.38;;;11.93;83.07
79028;BME280;68427;48.476;19.102;2023-08-01T01:26:32;96953.50;;;11.93;82.97
79028;BME280;68427;48.476;19.102;2023-08-01T01:28:58;96950.44;;;11.96;83.05
79028;BME280;68427;48.476;19.102;2023-08-01T01:31:25;96949.84;;;11.94;82.77
79028;BME280;68427;48.476;19.102;2023-08-01T01:33:51;96949.06;;;11.93;82.47
79028;BME280;68427;48.476;19.102;2023-08-01T01:36:16;96952.91;;;11.91;82.51
79028;BME280;68427;48.476;19.102;2023-08-01T01:38:43;96952.56;;;11.87;82.80
79028;BME280;68427;48.476;19.102;2023-08-01T01:41:09;96962.66;;;11.83;82.67
79028;BME280;68427;48.476;19.102;2023-08-01T01:43:36;96963.47;;;11.84;82.83
79028;BME280;68427;48.476;19.102;2023-08-01T01:46:03;96949.59;;;11.77;83.35
79028;BME280;68427;48.476;19.102;2023-08-01T01:48:29;96958.91;;;11.73;84.29
79028;BME280;68427;48.476;19.102;2023-08-01T01:50:54;96963.72;;;11.76;83.89
79028;BME280;68427;48.476;19.102;2023-08-01T01:53:20;96951.00;;;11.79;83.02
79028;BME280;68427;48.476;19.102;2023-08-01T01:55:47;96947.56;;;11.79;83.30
79028;BME280;68427;48.476;19.102;2023-08-01T01:58:13;96940.94;;;11.76;85.04
79028;BME280;68427;48.476;19.102;2023-08-01T02:00:38;96938.31;;;11.76;84.63
79028;BME280;68427;48.476;19.102;2023-08-01T02:03:04;96935.59;;;11.83;84.48
79028;BME280;68427;48.476;19.102;2023-08-01T02:05:32;96927.97;;;11.81;84.87
79028;BME280;68427;48.476;19.102;2023-08-01T02:07:58;96927.91;;;11.88;84.89
79028;BME280;68427;48.476;19.102;2023-08-01T02:10:24;96919.03;;;11.89;85.43
79028;BME280;68427;48.476;19.102;2023-08-01T02:12:51;96919.75;;;11.96;85.42
79028;BME280;68427;48.476;19.102;2023-08-01T02:15:17;96929.19;;;12.04;85.23
79028;BME280;68427;48.476;19.102;2023-08-01T02:17:42;96918.47;;;12.05;85.07
79028;BME280;68427;48.476;19.102;2023-08-01T02:20:09;96925.53;;;12.05;84.86
79028;BME280;68427;48.476;19.102;2023-08-01T02:22:34;96915.63;;;12.07;85.12
79028;BME280;68427;48.476;19.102;2023-08-01T02:25:00;96911.53;;;12.11;84.73
79028;BME280;68427;48.476;19.102;2023-08-01T02:27:26;96917.50;;;12.18;84.99
79028;BME280;68427;48.476;19.102;2023-08-01T02:29:53;96909.56;;;12.25;85.33
79028;BME280;68427;48.476;19.102;2023-08-01T02:32:18;96913.38;;;12.29;85.57
79028;BME280;68427;48.476;19.102;2023-08-01T02:34:44;96906.28;;;12.29;85.60
79028;BME280;68427;48.476;19.102;2023-08-01T02:37:10;96905.25;;;12.30;85.01
79028;BME280;68427;48.476;19.102;2023-08-01T02:39:36;96908.25;;;12.34;84.66
79028;BME280;68427;48.476;19.102;2023-08-01T02:42:01;96913.28;;;12.36;84.66
79028;BME280;68427;48.476;19.102;2023-08-01T02:44:28;96906.19;;;12.36;85.58
79028;BME280;68427;48.476;19.102;2023-08-01T02:46:55;96912.41;;;12.42;84.55
79028;BME280;68427;48.476;19.102;2023-08-01T02:49:21;96912.97;;;12.44;84.66
79028;BME280;68427;48.476;19.102;2023-08-01T02:51:47;96915.16;;;12.47;85.08
79028;BME280;68427;48.476;19.102;2023-08-01T02:54:12;96908.88;;;12.48;85.11
79028;BME280;68427;48.476;19.102;2023-08-01T02:56:38;96898.81;;;12.45;85.01
79028;BME280;68427;48.476;19.102;2023-08-01T02:59:06;96900.41;;;12.46;85.11
79028;BME280;68427;48.476;19.102;2023-08-01T03:01:33;96895.97;;;12.46;85.38
79028;BME280;68427;48.476;19.102;2023-08-01T03:04:01;96896.78;;;12.47;84.93
79028;BME280;68427;48.476;19.102;2023-08-01T03:06:26;96898.97;;;12.50;85.07
79028;BME280;68427;48.476;19.102;2023-08-01T03:08:52;96890.63;;;12.53;85.18
79028;BME280;68427;48.476;19.102;2023-08-01T03:11:17;96891.81;;;12.57;85.27
79028;BME280;68427;48.476;19.102;2023-08-01T03:13:43;96893.41;;;12.58;85.92
79028;BME280;68427;48.476;19.102;2023-08-01T03:16:09;96896.81;;;12.59;85.62
79028;BME280;68427;48.476;19.102;2023-08-01T03:18:35;96896.03;;;12.58;85.16
79028;BME280;68427;48.476;19.102;2023-08-01T03:21:02;96898.66;;;12.58;85.11
79028;BME280;68427;48.476;19.102;2023-08-01T03:23:29;96897.84;;;12.58;85.23
79028;BME280;68427;48.476;19.102;2023-08-01T03:25:55;96900.69;;;12.56;84.41
79028;BME280;68427;48.476;19.102;2023-08-01T03:28:20;96892.25;;;12.54;85.02
79028;BME280;68427;48.476;19.102;2023-08-01T03:30:46;96893.25;;;12.53;85.42
79028;BME280;68427;48.476;19.102;2023-08-01T03:33:15;96891.66;;;12.52;84.75
79028;BME280;68427;48.476;19.102;2023-08-01T03:35:40;96884.78;;;12.51;84.98
79028;BME280;68427;48.476;19.102;2023-08-01T03:38:07;96885.38;;;12.53;85.04
79028;BME280;68427;48.476;19.102;2023-08-01T03:40:33;96883.53;;;12.53;84.99
79028;BME280;68427;48.476;19.102;2023-08-01T03:42:59;96887.78;;;12.54;84.63
79028;BME280;68427;48.476;19.102;2023-08-01T03:45:25;96884.38;;;12.54;84.96
79028;BME280;68427;48.476;19.102;2023-08-01T03:47:50;96886.75;;;12.56;84.86
79028;BME280;68427;48.476;19.102;2023-08-01T03:50:16;96885.97;;;12.55;84.17
79028;BME280;68427;48.476;19.102;2023-08-01T03:52:42;96886.19;;;12.53;84.62
79028;BME280;68427;48.476;19.102;2023-08-01T03:55:10;96883.53;;;12.53;84.80
79028;BME280;68427;48.476;19.102;2023-08-01T03:57:35;96875.44;;;12.55;84.08
79028;BME280;68427;48.476;19.102;2023-08-01T04:00:02;96876.25;;;12.56;84.68
79028;BME280;68427;48.476;19.102;2023-08-01T04:02:28;96871.25;;;12.54;84.55
79028;BME280;68427;48.476;19.102;2023-08-01T04:04:54;96881.28;;;12.57;84.74
79028;BME280;68427;48.476;19.102;2023-08-01T04:07:20;96878.22;;;12.60;85.16
79028;BME280;68427;48.476;19.102;2023-08-01T04:09:46;96882.81;;;12.65;85.00
79028;BME280;68427;48.476;19.102;2023-08-01T04:12:13;96886.72;;;12.74;85.12
79028;BME280;68427;48.476;19.102;2023-08-01T04:14:39;96881.38;;;12.81;84.67
79028;BME280;68427;48.476;19.102;2023-08-01T04:17:05;96883.66;;;12.89;84.20
79028;BME280;68427;48.476;19.102;2023-08-01T04:19:30;96887.00;;;12.96;83.99
79028;BME280;68427;48.476;19.102;2023-08-01T04:21:56;96880.94;;;12.95;84.63
79028;BME280;68427;48.476;19.102;2023-08-01T04:24:22;96884.38;;;12.96;84.10
79028;BME280;68427;48.476;19.102;2023-08-01T04:26:50;96885.16;;;12.96;84.76
79028;BME280;68427;48.476;19.102;2023-08-01T04:29:17;96886.34;;;13.01;84.07
79028;BME280;68427;48.476;19.102;2023-08-01T04:31:43;96888.50;;;13.04;84.47
79028;BME280;68427;48.476;19.102;2023-08-01T04:34:09;96884.75;;;13.11;84.30
79028;BME280;68427;48.476;19.102;2023-08-01T04:36:34;96883.19;;;13.22;83.69
79028;BME280;68427;48.476;19.102;2023-08-01T04:39:03;96888.25;;;13.35;84.46
79028;BME280;68427;48.476;19.102;2023-08-01T04:41:28;96890.34;;;13.45;85.18
79028;BME280;68427;48.476;19.102;2023-08-01T04:43:54;96888.72;;;13.56;84.12
79028;BME280;68427;48.476;19.102;2023-08-01T04:46:21;96885.84;;;13.69;84.24
79028;BME280;68427;48.476;19.102;2023-08-01T04:48:47;96888.84;;;13.73;83.08
79028;BME280;68427;48.476;19.102;2023-08-01T04:51:13;96879.47;;;13.77;82.84
79028;BME280;68427;48.476;19.102;2023-08-01T04:53:38;96882.44;;;13.80;82.95
79028;BME280;68427;48.476;19.102;2023-08-01T04:56:04;96885.75;;;13.88;82.97
79028;BME280;68427;48.476;19.102;2023-08-01T04:58:30;96887.13;;;13.90;82.62
79028;BME280;68427;48.476;19.102;2023-08-01T05:00:56;96898.44;;;13.91;82.63
79028;BME280;68427;48.476;19.102;2023-08-01T05:03:23;96884.97;;;13.87;82.96
79028;BME280;68427;48.476;19.102;2023-08-01T05:05:48;96898.22;;;13.92;82.44
79028;BME280;68427;48.476;19.102;2023-08-01T05:08:14;96896.81;;;14.01;82.25
79028;BME280;68427;48.476;19.102;2023-08-01T05:10:40;96892.22;;;14.09;82.81
79028;BME280;68427;48.476;19.102;2023-08-01T05:13:07;96891.19;;;14.21;82.38
79028;BME280;68427;48.476;19.102;2023-08-01T05:15:32;96885.41;;;14.36;81.54
79028;BME280;68427;48.476;19.102;2023-08-01T05:18:24;96888.34;;;14.52;80.86
79028;BME280;68427;48.476;19.102;2023-08-01T05:20:50;96886.44;;;14.76;80.32
79028;BME280;68427;48.476;19.102;2023-08-01T05:23:16;96897.13;;;14.98;79.45
79028;BME280;68427;48.476;19.102;2023-08-01T05:25:41;96891.78;;;15.26;78.92
79028;BME280;68427;48.476;19.102;2023-08-01T05:28:07;96886.91;;;15.52;77.18
79028;BME280;68427;48.476;19.102;2023-08-01T05:30:33;96881.41;;;15.70;75.63
79028;BME280;68427;48.476;19.102;2023-08-01T05:32:59;96884.34;;;16.13;74.77
79028;BME280;68427;48.476;19.102;2023-08-01T05:35:26;96879.31;;;16.55;73.60
79028;BME280;68427;48.476;19.102;2023-08-01T05:37:52;96887.16;;;16.99;71.94
79028;BME280;68427;48.476;19.102;2023-08-01T05:40:18;96884.97;;;17.56;70.86
79028;BME280;68427;48.476;19.102;2023-08-01T05:42:43;96877.28;;;17.91;67.47
79028;BME280;68427;48.476;19.102;2023-08-01T05:45:10;96884.34;;;18.28;66.86
79028;BME280;68427;48.476;19.102;2023-08-01T05:47:37;96876.06;;;18.14;67.34
79028;BME280;68427;48.476;19.102;2023-08-01T05:50:03;96874.41;;;17.98;68.01
79028;BME280;68427;48.476;19.102;2023-08-01T05:52:31;96859.94;;;17.74;67.03
79028;BME280;68427;48.476;19.102;2023-08-01T05:54:56;96869.09;;;17.56;67.88
79028;BME280;68427;48.476;19.102;2023-08-01T05:57:22;96867.44;;;17.49;68.84
79028;BME280;68427;48.476;19.102;2023-08-01T05:59:48;96867.16;;;17.46;70.04
79028;BME280;68427;48.476;19.102;2023-08-01T06:02:14;96867.41;;;17.44;70.38
79028;BME280;68427;48.476;19.102;2023-08-01T06:04:39;96873.22;;;17.41;70.19
79028;BME280;68427;48.476;19.102;2023-08-01T06:07:05;96879.28;;;17.37;70.91
79028;BME280;68427;48.476;19.102;2023-08-01T06:09:32;96870.78;;;17.35;71.24
79028;BME280;68427;48.476;19.102;2023-08-01T06:11:58;96861.75;;;17.31;70.64
79028;BME280;68427;48.476;19.102;2023-08-01T06:14:24;96862.06;;;17.39;71.95
79028;BME280;68427;48.476;19.102;2023-08-01T06:16:50;96866.59;;;17.39;71.77
79028;BME280;68427;48.476;19.102;2023-08-01T06:19:15;96862.63;;;17.41;71.85
79028;BME280;68427;48.476;19.102;2023-08-01T06:21:41;96867.38;;;17.39;71.48
79028;BME280;68427;48.476;19.102;2023-08-01T06:24:07;96867.66;;;17.43;71.29
79028;BME280;68427;48.476;19.102;2023-08-01T06:26:35;96863.97;;;17.44;70.92
79028;BME280;68427;48.476;19.102;2023-08-01T06:29:01;96865.56;;;17.45;71.41
79028;BME280;68427;48.476;19.102;2023-08-01T06:31:26;96867.97;;;17.46;71.32
79028;BME280;68427;48.476;19.102;2023-08-01T06:33:52;96865.84;;;17.48;70.89
79028;BME280;68427;48.476;19.102;2023-08-01T06:36:18;96857.66;;;17.50;71.09
79028;BME280;68427;48.476;19.102;2023-08-01T06:38:43;96861.38;;;17.54;71.65
79028;BME280;68427;48.476;19.102;2023-08-01T06:41:09;96857.00;;;17.33;71.40
79028;BME280;68427;48.476;19.102;2023-08-01T06:43:36;96853.94;;;17.46;72.30
79028;BME280;68427;48.476;19.102;2023-08-01T06:46:05;96855.34;;;17.59;72.87
79028;BME280;68427;48.476;19.102;2023-08-01T06:48:31;96867.59;;;17.75;72.01
79028;BME280;68427;48.476;19.102;2023-08-01T06:50:56;96868.78;;;17.89;70.83
79028;BME280;68427;48.476;19.102;2023-08-01T06:53:22;96867.25;;;17.99;69.96
79028;BME280;68427;48.476;19.102;2023-08-01T06:55:48;96851.13;;;18.16;69.90
79028;BME280;68427;48.476;19.102;2023-08-01T06:58:15;96847.09;;;17.98;70.09
79028;BME280;68427;48.476;19.102;2023-08-01T07:00:42;96848.22;;;18.17;69.36
79028;BME280;68427;48.476;19.102;2023-08-01T07:03:08;96842.22;;;18.37;68.42
79028;BME280;68427;48.476;19.102;2023-08-01T07:05:36;96827.94;;;18.48;68.44
79028;BME280;68427;48.476;19.102;2023-08-01T07:08:02;96832.13;;;18.39;67.92
79028;BME280;68427;48.476;19.102;2023-08-01T07:10:29;96827.88;;;18.38;67.76
79028;BME280;68427;48.476;19.102;2023-08-01T07:12:55;96833.75;;;18.55;67.53
79028;BME280;68427;48.476;19.102;2023-08-01T07:15:21;96833.25;;;18.64;66.88
79028;BME280;68427;48.476;19.102;2023-08-01T07:17:48;96831.66;;;18.73;67.00
79028;BME280;68427;48.476;19.102;2023-08-01T07:20:14;96840.22;;;18.85;67.08
79028;BME280;68427;48.476;19.102;2023-08-01T07:22:40;96838.88;;;18.88;67.29
79028;BME280;68427;48.476;19.102;2023-08-01T07:25:06;96838.88;;;18.93;66.96
79028;BME280;68427;48.476;19.102;2023-08-01T07:27:32;96836.22;;;19.03;67.08
79028;BME280;68427;48.476;19.102;2023-08-01T07:29:58;96833.06;;;19.11;66.96
79028;BME280;68427;48.476;19.102;2023-08-01T07:32:23;96819.78;;;19.11;66.64
79028;BME280;68427;48.476;19.102;2023-08-01T07:34:51;96811.00;;;19.36;64.76
79028;BME280;68427;48.476;19.102;2023-08-01T07:37:16;96815.25;;;19.42;63.98
79028;BME280;68427;48.476;19.102;2023-08-01T07:39:42;96808.88;;;19.49;62.90
79028;BME280;68427;48.476;19.102;2023-08-01T07:42:07;96807.75;;;19.70;63.91
79028;BME280;68427;48.476;19.102;2023-08-01T07:44:33;96798.47;;;19.68;63.05
79028;BME280;68427;48.476;19.102;2023-08-01T07:46:59;96794.69;;;19.89;63.21
79028;BME280;68427;48.476;19.102;2023-08-01T07:49:25;96795.97;;;20.91;59.39
79028;BME280;68427;48.476;19.102;2023-08-01T07:51:52;96806.47;;;21.70;58.04
79028;BME280;68427;48.476;19.102;2023-08-01T07:54:18;96806.06;;;21.82;56.16
79028;BME280;68427;48.476;19.102;2023-08-01T07:56:44;96796.75;;;22.27;55.60
79028;BME280;68427;48.476;19.102;2023-08-01T07:59:11;96785.34;;;22.78;55.40
79028;BME280;68427;48.476;19.102;2023-08-01T08:01:36;96784.50;;;23.16;53.84
79028;BME280;68427;48.476;19.102;2023-08-01T08:04:02;96789.56;;;23.31;52.37
79028;BME280;68427;48.476;19.102;2023-08-01T08:06:28;96778.00;;;23.49;50.07
79028;BME280;68427;48.476;19.102;2023-08-01T08:08:55;96780.84;;;24.72;47.73
79028;BME280;68427;48.476;19.102;2023-08-01T08:13:54;96772.63;;;26.77;43.58
79028;BME280;68427;48.476;19.102;2023-08-01T08:16:20;96761.94;;;27.33;40.62
79028;BME280;68427;48.476;19.102;2023-08-01T08:18:46;96757.53;;;27.28;40.67
79028;BME280;68427;48.476;19.102;2023-08-01T08:21:11;96751.94;;;27.42;40.30
79028;BME280;68427;48.476;19.102;2023-08-01T08:23:38;96742.97;;;27.29;39.95
79028;BME280;68427;48.476;19.102;2023-08-01T08:26:05;96745.28;;;27.48;40.00
79028;BME280;68427;48.476;19.102;2023-08-01T08:28:33;96744.44;;;28.16;39.41
79028;BME280;68427;48.476;19.102;2023-08-01T08:30:59;96737.88;;;28.05;39.82
79028;BME280;68427;48.476;19.102;2023-08-01T08:33:25;96733.63;;;28.25;39.92
79028;BME280;68427;48.476;19.102;2023-08-01T08:35:51;96727.78;;;28.64;38.59
79028;BME280;68427;48.476;19.102;2023-08-01T08:38:17;96721.94;;;28.62;38.87
79028;BME280;68427;48.476;19.102;2023-08-01T08:40:52;96717.47;;;28.79;39.97
79028;BME280;68427;48.476;19.102;2023-08-01T08:43:21;96725.03;;;28.52;39.87
79028;BME280;68427;48.476;19.102;2023-08-01T08:45:48;96722.03;;;28.03;40.42
79028;BME280;68427;48.476;19.102;2023-08-01T08:48:18;96715.75;;;27.31;42.39
79028;BME280;68427;48.476;19.102;2023-08-01T08:50:45;96708.88;;;26.95;44.41
79028;BME280;68427;48.476;19.102;2023-08-01T08:53:11;96702.28;;;26.84;45.74
79028;BME280;68427;48.476;19.102;2023-08-01T08:55:39;96712.56;;;26.47;47.02
79028;BME280;68427;48.476;19.102;2023-08-01T08:58:05;96715.88;;;25.92;48.56
79028;BME280;68427;48.476;19.102;2023-08-01T09:00:33;96721.59;;;25.59;50.06
79028;BME280;68427;48.476;19.102;2023-08-01T09:03:00;96710.47;;;25.03;50.45
79028;BME280;68427;48.476;19.102;2023-08-01T09:05:28;96702.22;;;24.68;51.11
79028;BME280;68427;48.476;19.102;2023-08-01T09:08:02;96700.63;;;24.67;51.18
79028;BME280;68427;48.476;19.102;2023-08-01T09:10:31;96695.25;;;24.90;52.59
79028;BME280;68427;48.476;19.102;2023-08-01T09:12:57;96690.66;;;24.90;52.14
79028;BME280;68427;48.476;19.102;2023-08-01T09:15:24;96690.06;;;25.25;53.09
79028;BME280;68427;48.476;19.102;2023-08-01T09:17:54;96676.06;;;26.72;49.57
79028;BME280;68427;48.476;19.102;2023-08-01T09:20:26;96680.75;;;29.57;41.59
79028;BME280;68427;48.476;19.102;2023-08-01T09:22:59;96673.19;;;30.68;39.27
79028;BME280;68427;48.476;19.102;2023-08-01T09:25:31;96667.56;;;31.52;35.22
79028;BME280;68427;48.476;19.102;2023-08-01T09:27:57;96662.31;;;31.59;35.85
79028;BME280;68427;48.476;19.102;2023-08-01T09:30:23;96657.56;;;31.72;35.67
79028;BME280;68427;48.476;19.102;2023-08-01T09:32:53;96662.47;;;33.03;32.42
79028;BME280;68427;48.476;19.102;2023-08-01T09:35:19;96667.72;;;33.65;31.17
79028;BME280;68427;48.476;19.102;2023-08-01T09:37:46;96652.66;;;33.97;31.03
79028;BME280;68427;48.476;19.102;2023-08-01T09:40:13;96649.72;;;33.30;32.47
79028;BME280;68427;48.476;19.102;2023-08-01T09:42:39;96643.91;;;32.43;34.86
79028;BME280;68427;48.476;19.102;2023-08-01T09:45:11;96645.72;;;32.35;33.23
79028;BME280;68427;48.476;19.102;2023-08-01T09:47:38;96632.81;;;32.48;33.57
79028;BME280;68427;48.476;19.102;2023-08-01T09:50:05;96635.47;;;31.70;33.92
79028;BME280;68427;48.476;19.102;2023-08-01T09:52:33;96627.50;;;31.26;35.49
79028;BME280;68427;48.476;19.102;2023-08-01T09:54:58;96618.94;;;31.75;34.42
79028;BME280;68427;48.476;19.102;2023-08-01T09:57:28;96622.31;;;32.07;33.60
79028;BME280;68427;48.476;19.102;2023-08-01T09:59:55;96625.31;;;32.22;32.39
79028;BME280;68427;48.476;19.102;2023-08-01T10:02:24;96620.63;;;31.99;34.20
79028;BME280;68427;48.476;19.102;2023-08-01T10:04:52;96616.91;;;31.53;34.70
79028;BME280;68427;48.476;19.102;2023-08-01T10:07:23;96624.25;;;31.36;34.96
79028;BME280;68427;48.476;19.102;2023-08-01T10:09:49;96605.72;;;30.43;36.54
79028;BME280;68427;48.476;19.102;2023-08-01T10:12:17;96602.84;;;30.52;36.33
79028;BME280;68427;48.476;19.102;2023-08-01T10:14:44;96618.06;;;30.28;38.03
79028;BME280;68427;48.476;19.102;2023-08-01T10:17:10;96628.44;;;29.61;38.82
79028;BME280;68427;48.476;19.102;2023-08-01T10:19:37;96603.91;;;28.68;39.43
79028;BME280;68427;48.476;19.102;2023-08-01T10:22:04;96608.25;;;28.48;41.09
79028;BME280;68427;48.476;19.102;2023-08-01T10:24:33;96606.25;;;29.15;41.58
79028;BME280;68427;48.476;19.102;2023-08-01T10:27:11;96607.88;;;29.57;38.90
79028;BME280;68427;48.476;19.102;2023-08-01T10:29:38;96601.47;;;29.74;38.34
79028;BME280;68427;48.476;19.102;2023-08-01T10:32:06;96579.34;;;31.00;36.61
79028;BME280;68427;48.476;19.102;2023-08-01T10:34:33;96590.53;;;30.10;37.83
79028;BME280;68427;48.476;19.102;2023-08-01T10:36:59;96589.44;;;29.71;39.81
79028;BME280;68427;48.476;19.102;2023-08-01T10:39:26;96581.81;;;29.36;40.01
79028;BME280;68427;48.476;19.102;2023-08-01T10:42:00;96585.31;;;28.88;41.87
79028;BME280;68427;48.476;19.102;2023-08-01T10:44:27;96582.22;;;28.52;41.57
79028;BME280;68427;48.476;19.102;2023-08-01T10:46:54;96577.56;;;28.40;41.69
79028;BME280;68427;48.476;19.102;2023-08-01T10:49:32;96570.91;;;28.96;40.79
79028;BME280;68427;48.476;19.102;2023-08-01T10:51:58;96576.22;;;28.34;42.78
79028;BME280;68427;48.476;19.102;2023-08-01T10:54:25;96555.28;;;27.86;42.42
79028;BME280;68427;48.476;19.102;2023-08-01T10:56:52;96566.34;;;27.63;42.68
79028;BME280;68427;48.476;19.102;2023-08-01T10:59:21;96562.03;;;27.50;43.90
79028;BME280;68427;48.476;19.102;2023-08-01T11:01:49;96564.13;;;27.14;45.53
79028;BME280;68427;48.476;19.102;2023-08-01T11:04:16;96562.09;;;26.73;45.90
79028;BME280;68427;48.476;19.102;2023-08-01T11:06:43;96551.22;;;26.61;44.31
79028;BME280;68427;48.476;19.102;2023-08-01T11:09:15;96555.63;;;26.65;46.33
79028;BME280;68427;48.476;19.102;2023-08-01T11:11:41;96551.16;;;26.78;44.97
79028;BME280;68427;48.476;19.102;2023-08-01T11:14:07;96545.69;;;26.66;43.58
79028;BME280;68427;48.476;19.102;2023-08-01T11:16:34;96544.16;;;26.47;44.82
79028;BME280;68427;48.476;19.102;2023-08-01T11:19:02;96533.97;;;26.70;44.26
79028;BME280;68427;48.476;19.102;2023-08-01T11:21:28;96535.03;;;26.78;44.91
79028;BME280;68427;48.476;19.102;2023-08-01T11:23:54;96540.41;;;26.31;45.97
79028;BME280;68427;48.476;19.102;2023-08-01T11:26:20;96541.84;;;26.28;46.47
79028;BME280;68427;48.476;19.102;2023-08-01T11:28:46;96539.22;;;25.94;45.19
79028;BME280;68427;48.476;19.102;2023-08-01T11:31:12;96535.91;;;25.97;46.51
79028;BME280;68427;48.476;19.102;2023-08-01T11:33:39;96528.94;;;25.78;46.35
79028;BME280;68427;48.476;19.102;2023-08-01T11:36:05;96523.25;;;25.97;48.05
79028;BME280;68427;48.476;19.102;2023-08-01T11:38:32;96520.75;;;26.01;47.75
79028;BME280;68427;48.476;19.102;2023-08-01T11:40:59;96524.69;;;25.95;47.29
79028;BME280;68427;48.476;19.102;2023-08-01T11:43:25;96535.28;;;25.91;47.13
79028;BME280;68427;48.476;19.102;2023-08-01T11:45:51;96524.72;;;25.86;46.54
79028;BME280;68427;48.476;19.102;2023-08-01T11:48:17;96522.19;;;25.63;47.53
79028;BME280;68427;48.476;19.102;2023-08-01T11:50:45;96518.53;;;25.68;48.57
79028;BME280;68427;48.476;19.102;2023-08-01T11:53:17;96522.16;;;25.46;48.49
79028;BME280;68427;48.476;19.102;2023-08-01T11:55:43;96517.44;;;25.52;46.70
79028;BME280;68427;48.476;19.102;2023-08-01T11:58:10;96520.91;;;25.52;45.96
79028;BME280;68427;48.476;19.102;2023-08-01T12:00:36;96519.63;;;25.50;46.13
79028;BME280;68427;48.476;19.102;2023-08-01T12:03:05;96516.00;;;25.37;46.91
79028;BME280;68427;48.476;19.102;2023-08-01T12:05:31;96509.22;;;25.39;46.74
79028;BME280;68427;48.476;19.102;2023-08-01T12:08:09;96509.69;;;25.24;47.29
79028;BME280;68427;48.476;19.102;2023-08-01T12:10:39;96505.53;;;25.00;45.96
79028;BME280;68427;48.476;19.102;2023-08-01T12:13:05;96500.59;;;24.76;45.73
79028;BME280;68427;48.476;19.102;2023-08-01T12:15:31;96498.72;;;24.86;46.70
79028;BME280;68427;48.476;19.102;2023-08-01T12:17:57;96491.47;;;24.95;46.64
79028;BME280;68427;48.476;19.102;2023-08-01T12:20:22;96486.16;;;25.12;45.91
79028;BME280;68427;48.476;19.102;2023-08-01T12:22:48;96488.25;;;25.24;45.89
79028;BME280;68427;48.476;19.102;2023-08-01T12:25:15;96486.97;;;25.48;46.20
79028;BME280;68427;48.476;19.102;2023-08-01T12:27:40;96493.25;;;25.78;45.95
79028;BME280;68427;48.476;19.102;2023-08-01T12:30:07;96495.00;;;25.82;44.41
79028;BME280;68427;48.476;19.102;2023-08-01T12:32:33;96499.09;;;26.06;45.20
79028;BME280;68427;48.476;19.102;2023-08-01T12:35:00;96496.72;;;26.04;45.90
79028;BME280;68427;48.476;19.102;2023-08-01T12:37:26;96494.38;;;25.94;45.20
79028;BME280;68427;48.476;19.102;2023-08-01T12:39:52;96511.44;;;25.81;48.43
79028;BME280;68427;48.476;19.102;2023-08-01T12:42:20;96509.09;;;25.53;50.54
79028;BME280;68427;48.476;19.102;2023-08-01T12:44:46;96519.66;;;25.41;51.33
79028;BME280;68427;48.476;19.102;2023-08-01T12:47:11;96510.16;;;25.35;51.93
79028;BME280;68427;48.476;19.102;2023-08-01T12:49:37;96509.72;;;25.41;51.99
79028;BME280;68427;48.476;19.102;2023-08-01T12:52:04;96509.84;;;25.45;52.60